DEN weather

Denver International Airport
Denver, Colorado, United States

Public forecast

Using degrees Fahrenheit for public forecast. Weather courtesy of forecast.io.

METAR (pilot weather report)

Retrieved 2017/07/23 03:53 UTC (21 minutes ago):

KDEN 230353Z 13010KT 10SM FEW080 SCT160 BKN220 23/12 A3019 RMK AO2 SLP142 T02280122 $

TAF (pilot weather forecast)

Forecast is more than 12 hours old.

Retrieved 2017/07/22 00:24 UTC (1 day ago):

TAF KDEN 222321Z 2300/2406 36008KT P6SM SCT080 BKN140 FM230100 10007KT P6SM FEW080 BKN140 FM230300 14009KT P6SM FEW140 SCT220 FM230600 18010KT P6SM FEW140 SCT220 FM231400 VRB05KT P6SM FEW140 SCT220 FM231800 05008KT P6SM FEW120 SCT220 FM232300 14008KT P6SM SCT100 SCT220